This is the latest recevied weather packets stored in our database for station/object N2VSB-13. If no packets are shown the sender has not sent any weather packets the latest 10 day(s).
| Time | Temp. | Humidity | Pressure | Rain* | Wind** | Luminosity | Snow |
|---|---|---|---|---|---|---|---|
| 1777458322 | 11.67° C | 67% | 1015.3 hPa | 0 mm | - | 5 W/m² | - |
| 1777456541 | 11.67° C | 66% | 1015 hPa | 0 mm | - | 1 W/m² | - |
| 1777454717 | 11.67° C | 67% | 1015.1 hPa | 0 mm | - | 0 W/m² | - |
| 1777453521 | 11.67° C | 65% | 1015 hPa | 0 mm | - | 0 W/m² | - |
| 1777452318 | 11.11° C | 66% | 1014.7 hPa | 0 mm | - | 0 W/m² | - |
| 1777446940 | 12.78° C | 57% | 1014.7 hPa | 0 mm | - | 0 W/m² | - |
| 1777440319 | 13.89° C | 50% | 1016.1 hPa | 0 mm | - | 0 W/m² | - |
| 1777439719 | 14.44° C | 50% | 1016 hPa | 0 mm | - | 0 W/m² | - |
| 1777436120 | 15° C | 49% | 1016.1 hPa | 0 mm | - | 0 W/m² | - |
| 1777434920 | 15° C | 51% | 1015.6 hPa | 0 mm | - | 0 W/m² | - |
| 1777431318 | 16.11° C | 49% | 1015.7 hPa | 0 mm | - | 0 W/m² | - |
| 1777430718 | 16.11° C | 48% | 1015.8 hPa | 0 mm | - | 0 W/m² | - |
| 1777428956 | 16.11° C | 48% | 1015.9 hPa | 0 mm | - | 0 W/m² | - |
| 1777428336 | 16.11° C | 49% | 1015.9 hPa | 0 mm | - | 0 W/m² | - |
| 1777424117 | 16.67° C | 46% | 1015.7 hPa | 0 mm | - | 0 W/m² | - |
| 1777422917 | 17.22° C | 45% | 1015.5 hPa | 0 mm | - | 0 W/m² | - |
| 1777420518 | 17.78° C | 42% | 1015.4 hPa | 0 mm | - | 3 W/m² | - |
| 1777415719 | 18.33° C | 40% | 1015.7 hPa | 0 mm | - | 42 W/m² | - |
| 1777415140 | 18.89° C | 41% | 1015.8 hPa | 0 mm | - | 44 W/m² | - |
| 1777410918 | 18.89° C | 41% | 1016.3 hPa | 0 mm | - | 82 W/m² | - |
| 1777406119 | 20° C | 41% | 1016.9 hPa | 0 mm | - | 158 W/m² | - |
| 1777405540 | 20° C | 40% | 1017.2 hPa | 0 mm | - | 169 W/m² | - |
| 1777403120 | 20° C | 40% | 1017.6 hPa | 0 mm | - | 249 W/m² | - |
| 1777395316 | 20° C | 38% | 1018.3 hPa | 0 mm | - | 815 W/m² | - |
| 1777392317 | 20° C | 39% | 1018.9 hPa | 0 mm | - | 648 W/m² | - |
* Rain latest hour (hover to see other rain measurements)
** Current wind speed in m/s (hover to see current wind gust speed)